createdAt,value
2019-02-28T00:03:03.103Z,98.03
2019-02-28T00:08:05.220Z,90.57
2019-02-28T00:13:10.282Z,96.20
2019-02-28T00:18:15.198Z,95.93
2019-02-28T00:23:19.182Z,100.90
2019-02-28T00:28:23.064Z,92.17
2019-02-28T00:33:26.880Z,98.67
2019-02-28T00:38:29.659Z,100.50
2019-02-28T00:43:35.311Z,104.50
2019-02-28T00:48:37.453Z,102.10
2019-02-28T00:53:42.149Z,103.83
2019-02-28T00:58:45.524Z,105.00
2019-02-28T01:03:58.033Z,110.87
2019-02-28T01:08:58.904Z,112.27
2019-02-28T01:14:03.607Z,112.50
2019-02-28T01:19:10.148Z,98.77
2019-02-28T01:24:14.641Z,113.67
2019-02-28T01:29:19.439Z,118.20
2019-02-28T01:34:22.924Z,115.20
2019-02-28T01:39:30.704Z,120.47
2019-02-28T01:44:35.805Z,126.23
2019-02-28T01:49:40.815Z,117.00
2019-02-28T01:54:43.367Z,120.53
2019-02-28T01:59:48.264Z,110.20
2019-02-28T02:04:50.362Z,126.73
2019-02-28T02:09:52.758Z,123.83
2019-02-28T02:14:57.139Z,135.33
2019-02-28T02:20:01.327Z,120.73
2019-02-28T02:25:08.532Z,133.93
2019-02-28T02:30:15.752Z,128.67
2019-02-28T02:35:18.065Z,126.77
2019-02-28T02:40:23.243Z,132.03
2019-02-28T02:45:26.694Z,136.10
2019-02-28T02:50:35.925Z,144.43
2019-02-28T02:55:38.503Z,143.10
2019-02-28T03:00:49.473Z,144.83
2019-02-28T03:05:52.773Z,152.97
2019-02-28T03:10:55.974Z,148.40
2019-02-28T03:15:59.263Z,164.30
2019-02-28T03:21:02.067Z,150.57
2019-02-28T03:26:07.151Z,151.30
2019-02-28T03:31:14.420Z,149.33
2019-02-28T03:36:17.293Z,153.40
2019-02-28T03:41:19.308Z,160.83
2019-02-28T03:46:25.086Z,163.40
2019-02-28T03:51:32.010Z,173.33
2019-02-28T03:56:38.217Z,162.00
2019-02-28T04:01:45.383Z,172.83
2019-02-28T04:06:48.589Z,192.27
2019-02-28T04:11:53.417Z,179.23
2019-02-28T04:16:55.711Z,173.40
2019-02-28T04:21:57.709Z,186.73
2019-02-28T04:27:05.895Z,173.10
2019-02-28T04:32:05.813Z,178.43
2019-02-28T04:37:09.539Z,191.70
2019-02-28T04:42:13.034Z,187.80
2019-02-28T04:47:20.297Z,195.77
2019-02-28T04:52:22.373Z,199.23
2019-02-28T04:57:27.163Z,209.40
2019-02-28T05:02:29.253Z,219.50
2019-02-28T05:07:34.121Z,209.13
2019-02-28T05:12:39.497Z,205.40
2019-02-28T05:17:42.264Z,224.17
2019-02-28T05:22:44.360Z,218.53
2019-02-28T05:27:46.406Z,232.27
2019-02-28T05:32:51.065Z,227.20
2019-02-28T05:37:54.245Z,216.13
2019-02-28T05:42:58.281Z,209.93
2019-02-28T05:48:03.789Z,227.97
2019-02-28T05:53:06.240Z,234.10
2019-02-28T05:58:11.872Z,249.70
2019-02-28T06:03:17.775Z,244.77
2019-02-28T06:08:20.900Z,257.07
2019-02-28T06:13:23.274Z,258.07
2019-02-28T06:18:32.684Z,250.10
2019-02-28T06:23:31.179Z,245.40
2019-02-28T06:28:36.208Z,272.23
2019-02-28T06:33:38.251Z,247.00
2019-02-28T06:38:40.295Z,269.13
2019-02-28T06:43:44.595Z,238.33
2019-02-28T06:48:46.711Z,228.67
2019-02-28T06:53:48.798Z,219.10
2019-02-28T06:58:53.605Z,226.03
2019-02-28T07:03:55.775Z,215.40
2019-02-28T07:09:01.829Z,208.20
2019-02-28T07:14:03.715Z,207.63
2019-02-28T07:19:06.494Z,200.27
2019-02-28T07:24:12.389Z,207.37
2019-02-28T07:29:16.735Z,199.30
2019-02-28T07:34:23.852Z,201.47
2019-02-28T07:39:24.362Z,185.30
2019-02-28T07:44:26.584Z,187.33
2019-02-28T07:49:28.674Z,183.07
2019-02-28T07:54:31.396Z,173.97
2019-02-28T07:59:33.645Z,173.53
2019-02-28T08:04:35.926Z,195.17
2019-02-28T08:09:40.606Z,180.93
2019-02-28T08:14:43.653Z,188.40
2019-02-28T08:19:47.524Z,187.70
2019-02-28T08:24:49.686Z,187.57
2019-02-28T08:29:51.935Z,204.73
2019-02-28T08:34:55.601Z,193.70
2019-02-28T08:39:58.114Z,197.13
2019-02-28T08:45:00.484Z,192.83
2019-02-28T08:50:03.676Z,192.47
2019-02-28T08:55:09.244Z,183.40
2019-02-28T09:00:13.800Z,185.90
2019-02-28T09:05:15.958Z,182.40
2019-02-28T09:10:18.361Z,200.80
2019-02-28T09:15:20.799Z,173.57
2019-02-28T09:20:22.817Z,180.10
2019-02-28T09:25:27.188Z,188.70
2019-02-28T09:30:36.357Z,175.43
2019-02-28T09:35:45.280Z,177.90
2019-02-28T09:40:49.556Z,164.53
2019-02-28T09:45:51.609Z,167.27
2019-02-28T09:50:59.174Z,171.50
2019-02-28T09:56:01.418Z,171.23
2019-02-28T10:01:06.768Z,168.03
2019-02-28T10:06:09.119Z,180.40
2019-02-28T10:11:15.476Z,172.80
2019-02-28T10:16:21.923Z,188.63
2019-02-28T10:21:25.353Z,180.03
2019-02-28T10:26:27.829Z,190.00
2019-02-28T10:31:36.179Z,183.83
2019-02-28T10:36:52.220Z,174.50
2019-02-28T10:41:56.881Z,178.63
2019-02-28T10:47:04.287Z,169.53
2019-02-28T10:52:08.417Z,170.37
2019-02-28T10:57:10.754Z,165.57
2019-02-28T11:02:18.932Z,176.97
2019-02-28T11:07:19.309Z,176.20
2019-02-28T11:12:23.741Z,174.00
2019-02-28T11:17:25.917Z,183.33
2019-02-28T11:22:28.046Z,177.03
2019-02-28T11:27:30.363Z,178.67
2019-02-28T11:32:32.573Z,179.13
2019-02-28T11:37:35.557Z,186.30
2019-02-28T11:42:37.824Z,188.80
2019-02-28T11:47:42.628Z,171.23
2019-02-28T11:52:43.989Z,163.43
2019-02-28T11:57:46.101Z,164.43
2019-02-28T12:02:53.385Z,160.97
2019-02-28T12:07:52.689Z,156.40
2019-02-28T12:12:56.376Z,138.57
2019-02-28T12:18:03.597Z,133.40
2019-02-28T12:23:02.661Z,125.07
2019-02-28T12:28:06.637Z,127.73
2019-02-28T12:33:09.282Z,141.23
2019-02-28T12:38:11.408Z,149.00
2019-02-28T12:43:13.641Z,154.17
2019-02-28T12:48:16.083Z,165.70
2019-02-28T12:53:24.331Z,141.87
2019-02-28T12:58:22.771Z,152.50
2019-02-28T13:03:25.573Z,140.43
2019-02-28T13:08:27.703Z,141.80
2019-02-28T13:13:30.125Z,148.13
2019-02-28T13:18:32.288Z,157.33
2019-02-28T13:23:34.593Z,172.23
2019-02-28T13:28:38.903Z,175.17
2019-02-28T13:33:48.619Z,191.00
2019-02-28T13:38:49.501Z,187.30
2019-02-28T13:43:54.758Z,184.77
2019-02-28T13:48:58.111Z,171.63
2019-02-28T13:54:03.134Z,148.13
2019-02-28T13:59:05.480Z,102.73
2019-02-28T14:04:13.889Z,74.70
2019-02-28T14:09:18.916Z,75.33
2019-02-28T14:14:22.174Z,65.37
2019-02-28T14:19:26.610Z,62.63
2019-02-28T14:24:30.953Z,56.43
2019-02-28T14:29:35.102Z,62.23
2019-02-28T14:34:37.320Z,55.17
2019-02-28T14:39:43.604Z,59.87
2019-02-28T14:44:49.445Z,56.87
2019-02-28T14:49:53.885Z,39.60
2019-02-28T14:54:58.305Z,44.87
2019-02-28T15:00:06.540Z,37.37
2019-02-28T15:05:16.693Z,36.47
2019-02-28T15:10:21.840Z,41.40
2019-02-28T15:15:24.247Z,38.70
2019-02-28T15:20:31.789Z,38.37
2019-02-28T15:25:31.536Z,42.77
2019-02-28T15:30:34.985Z,35.50
2019-02-28T15:35:37.266Z,46.00
2019-02-28T15:40:44.301Z,42.13
2019-02-28T15:45:46.557Z,35.57
2019-02-28T15:50:51.687Z,39.97
2019-02-28T15:55:56.916Z,30.93
2019-02-28T16:01:01.373Z,34.87
2019-02-28T16:06:03.636Z,31.77
2019-02-28T16:11:06.262Z,32.40
2019-02-28T16:16:09.499Z,37.30
2019-02-28T16:21:11.562Z,27.80
2019-02-28T16:26:18.234Z,29.23
2019-02-28T16:31:23.212Z,27.03
2019-02-28T16:36:29.197Z,31.83
2019-02-28T16:41:33.703Z,26.33
2019-02-28T16:46:38.107Z,36.80
2019-02-28T16:51:40.259Z,36.27
2019-02-28T16:56:42.524Z,44.90
2019-02-28T17:01:48.268Z,40.07
2019-02-28T17:06:53.027Z,32.77
2019-02-28T17:12:15.340Z,42.23
2019-02-28T17:17:23.826Z,43.87
2019-02-28T17:22:27.120Z,39.30
2019-02-28T17:27:53.912Z,40.53
2019-02-28T17:33:01.433Z,34.87
2019-02-28T17:38:03.800Z,31.97
2019-02-28T17:43:06.039Z,40.97
2019-02-28T17:48:31.223Z,35.10
2019-02-28T17:54:21.053Z,41.50
2019-02-28T17:59:48.131Z,35.47
2019-02-28T18:05:29.843Z,41.47
2019-02-28T18:11:16.546Z,33.30
2019-02-28T18:16:49.274Z,37.17
2019-02-28T18:22:19.014Z,43.57
2019-02-28T18:27:53.949Z,36.37
2019-02-28T18:33:00.006Z,99.37
2019-02-28T18:38:05.792Z,44.57
2019-02-28T18:43:11.820Z,37.77
2019-02-28T18:48:17.973Z,29.20
2019-02-28T18:53:25.555Z,31.55
2019-02-28T18:58:27.615Z,25.90
2019-02-28T19:03:29.748Z,28.80
2019-02-28T19:08:35.098Z,40.67
2019-02-28T19:13:39.162Z,30.23
2019-02-28T19:18:41.203Z,40.07
2019-02-28T19:23:43.784Z,43.63
2019-02-28T19:28:45.956Z,33.17
2019-02-28T19:33:48.455Z,37.17
2019-02-28T19:38:50.493Z,54.87
2019-02-28T19:43:56.553Z,48.70
2019-02-28T19:48:58.649Z,43.07
2019-02-28T19:54:02.189Z,53.83
2019-02-28T19:59:11.656Z,44.27
2019-02-28T20:04:15.392Z,47.90
2019-02-28T20:09:26.488Z,45.63
2019-02-28T20:14:29.058Z,48.47
2019-02-28T20:19:34.027Z,48.20
2019-02-28T20:24:37.905Z,52.97
2019-02-28T20:29:44.788Z,39.20
2019-02-28T20:34:49.006Z,53.83
2019-02-28T20:39:51.326Z,47.53
2019-02-28T20:44:53.654Z,53.27
2019-02-28T20:49:57.887Z,65.50
2019-02-28T20:55:00.383Z,56.63
2019-02-28T21:00:02.649Z,66.30
2019-02-28T21:05:09.520Z,47.37
2019-02-28T21:10:11.673Z,61.57
2019-02-28T21:15:18.285Z,56.57
2019-02-28T21:20:25.816Z,55.73
2019-02-28T21:25:30.019Z,64.90
2019-02-28T21:30:33.988Z,64.27
2019-02-28T21:35:36.289Z,61.07
2019-02-28T21:40:44.009Z,60.60
2019-02-28T21:45:47.260Z,58.73
2019-02-28T21:50:49.359Z,64.70
2019-02-28T21:55:55.777Z,60.40
2019-02-28T22:00:57.838Z,55.23
2019-02-28T22:06:01.765Z,55.57
2019-02-28T22:11:03.816Z,65.13
2019-02-28T22:16:11.590Z,47.07
2019-02-28T22:21:13.619Z,58.93
2019-02-28T22:26:16.674Z,64.20
2019-02-28T22:31:43.228Z,69.83
2019-02-28T22:36:49.971Z,58.27
2019-02-28T22:41:52.036Z,63.50
2019-02-28T22:46:57.132Z,62.03
2019-02-28T22:52:02.047Z,52.87
2019-02-28T22:57:04.380Z,73.07
2019-02-28T23:02:06.749Z,65.90
2019-02-28T23:07:14.039Z,78.80
2019-02-28T23:12:16.118Z,66.60
2019-02-28T23:17:18.246Z,72.27
2019-02-28T23:22:20.319Z,79.80
2019-02-28T23:27:24.196Z,82.93
2019-02-28T23:32:43.736Z,81.70
2019-02-28T23:37:48.811Z,101.20
2019-02-28T23:42:50.867Z,90.67
2019-02-28T23:47:58.808Z,97.17
2019-02-28T23:53:00.983Z,102.07
2019-02-28T23:58:03.181Z,91.53
